Time;durP1;ratioP1;P1;durP2;ratioP2;P2;SDS_P1;SDS_P2;PMS_P1;PMS_P2;Temp;Humidity;BMP_temperature;BMP_pressure;BME280_temperature;BME280_humidity;BME280_pressure;Samples;Min_cycle;Max_cycle;Signal;HPM_P1;HPM_P2
2022/09/19 00:02:27;;;;;;;7.10;2.95;;;;;;;;;;5019791;28;20049;-76
2022/09/19 00:04:57;;;;;;;6.07;3.25;;;;;;;;;;5018331;28;20045;-72
2022/09/19 00:07:27;;;;;;;3.55;2.58;;;;;;;;;;5016638;28;20057;-73
2022/09/19 00:09:57;;;;;;;6.63;3.45;;;;;;;;;;5014161;28;20053;-73
2022/09/19 00:12:28;;;;;;;5.32;2.85;;;;;;;;;;5007599;28;20060;-74
2022/09/19 00:14:59;;;;;;;7.28;3.10;;;;;;;;;;5007865;28;20042;-69
2022/09/19 00:17:29;;;;;;;7.30;3.33;;;;;;;;;;5006909;28;20053;-73
2022/09/19 00:19:58;;;;;;;11.18;3.15;;;;;;;;;;5008152;28;20049;-73
2022/09/19 00:22:29;;;;;;;6.70;3.35;;;;;;;;;;5006852;28;20057;-74
2022/09/19 00:24:59;;;;;;;4.85;3.03;;;;;;;;;;5008220;28;20064;-72
2022/09/19 00:27:29;;;;;;;6.95;3.10;;;;;;;;;;5007425;28;20398;-73
2022/09/19 00:29:58;;;;;;;5.80;3.20;;;;;;;;;;5006527;28;20054;-75
2022/09/19 00:32:28;;;;;;;6.57;3.33;;;;;;;;;;5007609;28;20050;-75
2022/09/19 00:34:58;;;;;;;4.72;3.38;;;;;;;;;;5006214;28;20420;-74
2022/09/19 00:37:28;;;;;;;6.75;3.30;;;;;;;;;;5006742;28;20060;-73
2022/09/19 00:39:58;;;;;;;8.27;3.22;;;;;;;;;;5006265;28;20053;-72
2022/09/19 00:42:28;;;;;;;4.82;2.75;;;;;;;;;;5008114;28;20054;-72
2022/09/19 00:45:05;;;;;;;6.15;3.35;;;;;;;;;;5006381;28;20066;-74
2022/09/19 00:47:44;;;;;;;7.72;3.22;;;;;;;;;;5006920;28;20053;-72
2022/09/19 00:50:43;;;;;;;8.20;3.30;;;;;;;;;;5006409;28;20550;-73
2022/09/19 00:53:17;;;;;;;5.20;3.00;;;;;;;;;;5006698;28;20160;-70
2022/09/19 00:55:50;;;;;;;5.25;3.05;;;;;;;;;;5006414;28;20778;-72
2022/09/19 00:58:23;;;;;;;6.03;2.90;;;;;;;;;;5007074;28;20053;-73
2022/09/19 01:00:53;;;;;;;5.45;3.10;;;;;;;;;;5005597;28;20057;-74
2022/09/19 01:03:27;;;;;;;4.82;2.70;;;;;;;;;;4989504;28;20065;-72
2022/09/19 01:06:25;;;;;;;3.67;2.83;;;;;;;;;;5006830;28;20045;-74
2022/09/19 01:09:15;;;;;;;6.05;2.67;;;;;;;;;;5004659;28;20060;-72
2022/09/19 01:12:16;;;;;;;5.32;2.83;;;;;;;;;;5005361;28;20072;-72
2022/09/19 01:15:15;;;;;;;5.65;2.92;;;;;;;;;;5006698;28;20409;-73
2022/09/19 01:17:48;;;;;;;4.22;2.78;;;;;;;;;;5006813;28;20698;-72
2022/09/19 01:20:36;;;;;;;3.05;2.63;;;;;;;;;;5006942;28;20046;-74
2022/09/19 01:23:25;;;;;;;5.97;3.05;;;;;;;;;;5006170;28;20153;-73
2022/09/19 01:26:11;;;;;;;5.80;3.15;;;;;;;;;;5005333;28;20054;-76
2022/09/19 01:28:47;;;;;;;4.28;3.08;;;;;;;;;;5005653;28;20497;-72
2022/09/19 01:31:27;;;;;;;6.63;3.30;;;;;;;;;;5006698;28;20062;-75
2022/09/19 01:34:21;;;;;;;4.00;2.72;;;;;;;;;;5007123;28;20087;-72
2022/09/19 01:37:12;;;;;;;4.35;2.83;;;;;;;;;;5006469;28;20054;-71
2022/09/19 01:39:46;;;;;;;5.75;2.60;;;;;;;;;;5004995;28;20061;-71
2022/09/19 01:42:19;;;;;;;7.78;2.97;;;;;;;;;;5005617;28;20556;-74
2022/09/19 01:44:52;;;;;;;6.13;3.30;;;;;;;;;;5005338;28;20041;-75
2022/09/19 01:47:49;;;;;;;6.18;3.70;;;;;;;;;;5005569;28;20046;-73
2022/09/19 01:50:31;;;;;;;6.28;3.55;;;;;;;;;;5006884;28;20045;-72
2022/09/19 01:53:46;;;;;;;4.55;2.88;;;;;;;;;;5004696;28;20058;-72
2022/09/19 01:57:09;;;;;;;5.40;3.28;;;;;;;;;;5006547;28;20058;-74
2022/09/19 02:00:00;;;;;;;5.18;3.40;;;;;;;;;;5006014;28;20046;-72
2022/09/19 02:03:06;;;;;;;5.13;3.10;;;;;;;;;;5006853;28;20058;-75
2022/09/19 02:06:00;;;;;;;6.70;3.28;;;;;;;;;;5005579;28;20064;-73
2022/09/19 02:09:06;;;;;;;4.18;3.17;;;;;;;;;;5005569;28;20073;-72
2022/09/19 02:11:56;;;;;;;9.50;3.00;;;;;;;;;;5007869;28;20053;-75
2022/09/19 02:14:30;;;;;;;5.28;3.13;;;;;;;;;;5009582;28;20064;-71
2022/09/19 02:17:12;;;;;;;6.75;3.15;;;;;;;;;;5009056;28;20050;-74
2022/09/19 02:19:48;;;;;;;4.80;3.42;;;;;;;;;;5010422;28;20042;-74
2022/09/19 02:22:24;;;;;;;;;;;;;;;;;;5011234;28;20050;-73
2022/09/19 02:24:58;;;;;;;7.55;3.20;;;;;;;;;;5009947;28;19932;-74
2022/09/19 02:27:44;;;;;;;5.70;3.40;;;;;;;;;;5010219;28;20046;-73
2022/09/19 02:30:14;;;;;;;4.63;3.05;;;;;;;;;;5009062;28;20530;-71
2022/09/19 02:32:48;;;;;;;4.55;3.05;;;;;;;;;;5008873;28;20137;-74
2022/09/19 02:35:38;;;;;;;5.63;3.30;;;;;;;;;;5008835;28;20065;-72
2022/09/19 02:38:29;;;;;;;8.82;3.30;;;;;;;;;;5010338;28;20061;-73
2022/09/19 02:41:12;;;;;;;6.65;3.70;;;;;;;;;;5008471;28;20057;-73
2022/09/19 02:44:00;;;;;;;7.10;3.35;;;;;;;;;;5009281;28;20061;-75
2022/09/19 02:46:42;;;;;;;5.60;3.30;;;;;;;;;;5008556;28;20054;-73
2022/09/19 02:49:31;;;;;;;5.70;3.50;;;;;;;;;;5010657;28;20048;-71
2022/09/19 02:52:07;;;;;;;8.25;3.85;;;;;;;;;;5010220;28;20392;-76
2022/09/19 02:54:40;;;;;;;5.57;3.10;;;;;;;;;;5009427;28;20053;-75
2022/09/19 02:57:14;;;;;;;6.05;3.92;;;;;;;;;;5008249;28;20370;-70
2022/09/19 02:59:49;;;;;;;7.88;3.42;;;;;;;;;;5007821;28;20057;-75
2022/09/19 03:02:22;;;;;;;;;;;;;;;;;;5008889;28;20497;-72
2022/09/19 03:05:06;;;;;;;4.60;3.28;;;;;;;;;;5008450;28;20332;-71
2022/09/19 03:07:42;;;;;;;5.90;3.25;;;;;;;;;;5008236;28;20069;-73
2022/09/19 03:10:22;;;;;;;5.10;3.58;;;;;;;;;;5007953;28;20065;-74
2022/09/19 03:13:08;;;;;;;8.43;3.78;;;;;;;;;;5008255;28;20057;-73
2022/09/19 03:15:38;;;;;;;11.98;3.92;;;;;;;;;;5007959;28;20050;-71
2022/09/19 03:18:15;;;;;;;4.40;3.33;;;;;;;;;;5007552;28;20050;-72
2022/09/19 03:20:54;;;;;;;8.75;3.92;;;;;;;;;;5008897;28;20473;-72
2022/09/19 03:23:41;;;;;;;6.10;4.03;;;;;;;;;;5007993;28;20054;-73
2022/09/19 03:26:17;;;;;;;5.70;3.33;;;;;;;;;;5007983;28;20054;-75
2022/09/19 03:28:47;;;;;;;5.60;3.67;;;;;;;;;;5008292;28;20050;-74
2022/09/19 03:31:17;;;;;;;6.97;3.58;;;;;;;;;;5007654;28;20521;-74
2022/09/19 03:33:48;;;;;;;4.82;3.60;;;;;;;;;;5007436;28;20069;-73
2022/09/19 03:36:19;;;;;;;4.75;3.33;;;;;;;;;;5007466;28;20509;-72
2022/09/19 03:38:49;;;;;;;3.85;3.33;;;;;;;;;;5008628;28;20046;-71
2022/09/19 03:41:22;;;;;;;6.25;3.58;;;;;;;;;;5007076;28;20064;-71
2022/09/19 03:43:53;;;;;;;6.53;4.03;;;;;;;;;;5009513;28;20053;-73
2022/09/19 03:46:26;;;;;;;6.30;3.63;;;;;;;;;;5007546;28;20053;-72
2022/09/19 03:49:03;;;;;;;8.30;3.38;;;;;;;;;;5007667;28;20390;-75
2022/09/19 03:51:33;;;;;;;6.40;3.50;;;;;;;;;;5008782;28;20037;-75
2022/09/19 03:54:05;;;;;;;5.70;3.42;;;;;;;;;;5007213;28;20057;-71
2022/09/19 03:56:42;;;;;;;5.95;3.47;;;;;;;;;;5007477;28;21153;-72
2022/09/19 03:59:14;;;;;;;4.65;3.35;;;;;;;;;;5007393;28;20068;-73
2022/09/19 04:01:45;;;;;;;4.35;3.35;;;;;;;;;;5007084;28;20420;-74
2022/09/19 04:04:17;;;;;;;7.93;3.40;;;;;;;;;;5007102;28;20058;-72
2022/09/19 04:06:51;;;;;;;7.35;3.60;;;;;;;;;;5007198;28;20532;-72
2022/09/19 04:09:26;;;;;;;5.35;3.47;;;;;;;;;;5006949;28;20508;-71
2022/09/19 04:12:02;;;;;;;4.53;3.40;;;;;;;;;;5007498;28;20046;-72
2022/09/19 04:14:38;;;;;;;4.85;3.35;;;;;;;;;;5007145;28;20957;-73
2022/09/19 04:17:09;;;;;;;4.82;3.40;;;;;;;;;;5008649;28;20184;-72
2022/09/19 04:20:00;;;;;;;4.65;3.58;;;;;;;;;;5006559;28;20050;-74
2022/09/19 04:22:50;;;;;;;4.38;3.30;;;;;;;;;;5003091;28;20058;-72
2022/09/19 04:25:35;;;;;;;7.78;3.90;;;;;;;;;;5006633;28;20416;-72
2022/09/19 04:28:22;;;;;;;5.82;2.97;;;;;;;;;;5006252;28;20428;-71
2022/09/19 04:30:55;;;;;;;5.95;3.20;;;;;;;;;;5006714;28;20055;-73
2022/09/19 04:33:26;;;;;;;5.32;3.35;;;;;;;;;;5005831;28;20049;-73
2022/09/19 04:36:00;;;;;;;6.03;3.38;;;;;;;;;;5006697;28;20370;-73
2022/09/19 04:38:32;;;;;;;7.28;3.55;;;;;;;;;;5008210;28;20393;-72
2022/09/19 04:41:03;;;;;;;5.18;2.85;;;;;;;;;;5006086;28;20046;-74
2022/09/19 04:43:33;;;;;;;5.85;3.35;;;;;;;;;;5007231;28;20049;-73
2022/09/19 04:46:21;;;;;;;6.68;2.63;;;;;;;;;;5006414;28;20061;-72
2022/09/19 04:48:54;;;;;;;3.58;2.70;;;;;;;;;;5006189;28;20054;-74
2022/09/19 04:51:30;;;;;;;4.70;2.53;;;;;;;;;;5005915;28;20050;-71
2022/09/19 04:54:01;;;;;;;4.82;2.78;;;;;;;;;;5006239;28;20057;-72
2022/09/19 04:56:31;;;;;;;5.03;3.17;;;;;;;;;;5006378;28;20054;-73
2022/09/19 04:59:03;;;;;;;4.43;2.85;;;;;;;;;;5006296;28;20053;-73
2022/09/19 05:01:38;;;;;;;4.53;3.00;;;;;;;;;;5006261;28;20505;-75
2022/09/19 05:04:08;;;;;;;4.78;2.55;;;;;;;;;;5007527;28;20065;-72
2022/09/19 05:06:38;;;;;;;4.72;3.20;;;;;;;;;;5006004;28;20425;-71
2022/09/19 05:09:11;;;;;;;6.28;2.90;;;;;;;;;;5005927;28;20053;-71
2022/09/19 05:11:49;;;;;;;5.47;3.10;;;;;;;;;;5006014;28;20448;-72
2022/09/19 05:14:21;;;;;;;4.15;2.65;;;;;;;;;;5007268;28;20567;-71
2022/09/19 05:16:56;;;;;;;4.22;2.58;;;;;;;;;;5005891;28;20053;-74
2022/09/19 05:19:27;;;;;;;3.67;2.53;;;;;;;;;;5006482;28;20057;-71
2022/09/19 05:21:57;;;;;;;6.60;2.83;;;;;;;;;;5005122;28;20056;-72
2022/09/19 05:24:29;;;;;;;7.60;2.40;;;;;;;;;;5006016;28;20057;-71
2022/09/19 05:27:02;;;;;;;3.72;2.40;;;;;;;;;;5005556;28;20050;-73
2022/09/19 05:29:36;;;;;;;5.80;2.53;;;;;;;;;;5005803;28;20053;-74
2022/09/19 05:32:06;;;;;;;3.13;2.55;;;;;;;;;;5007222;28;20050;-73
2022/09/19 05:34:42;;;;;;;5.60;2.70;;;;;;;;;;5010683;28;20061;-73
2022/09/19 05:37:31;;;;;;;3.72;2.50;;;;;;;;;;5008527;28;20058;-74
2022/09/19 05:40:33;;;;;;;4.68;2.42;;;;;;;;;;4995829;28;20073;-73
2022/09/19 05:43:25;;;;;;;6.03;2.65;;;;;;;;;;5006609;28;20046;-71
2022/09/19 05:45:56;;;;;;;5.38;2.38;;;;;;;;;;5008521;28;20046;-74
2022/09/19 05:48:28;;;;;;;2.30;2.10;;;;;;;;;;5008654;28;20049;-73
2022/09/19 05:50:58;;;;;;;8.50;2.47;;;;;;;;;;5005728;28;20516;-73
2022/09/19 05:56:49;;;;;;;2.90;2.17;;;;;;;;;;5004566;28;20097;-73
2022/09/19 05:59:21;;;;;;;3.88;2.10;;;;;;;;;;5005657;28;20050;-72
2022/09/19 06:01:52;;;;;;;4.18;2.40;;;;;;;;;;5005486;28;20432;-72
2022/09/19 06:04:38;;;;;;;4.35;2.13;;;;;;;;;;4991456;28;20057;-75
2022/09/19 06:07:11;;;;;;;3.20;2.03;;;;;;;;;;5006576;28;20057;-73
2022/09/19 06:09:43;;;;;;;4.47;2.38;;;;;;;;;;5005020;28;20050;-73
2022/09/19 06:12:15;;;;;;;3.88;2.25;;;;;;;;;;5005094;28;20513;-70
2022/09/19 06:14:45;;;;;;;3.72;2.03;;;;;;;;;;5005144;28;20050;-73
2022/09/19 06:17:16;;;;;;;3.20;1.77;;;;;;;;;;4989522;28;20061;-71
2022/09/19 06:20:11;;;;;;;3.83;2.00;;;;;;;;;;5006468;28;20062;-71
2022/09/19 06:23:03;;;;;;;4.82;2.03;;;;;;;;;;5005868;28;20539;-72
2022/09/19 06:25:35;;;;;;;2.80;2.20;;;;;;;;;;5005965;28;20065;-73
2022/09/19 06:28:10;;;;;;;3.00;2.30;;;;;;;;;;5006790;28;20041;-71
2022/09/19 06:30:53;;;;;;;3.72;2.30;;;;;;;;;;5004553;28;20070;-71
2022/09/19 06:33:35;;;;;;;2.78;2.47;;;;;;;;;;5005157;28;20067;-73
2022/09/19 06:36:14;;;;;;;3.53;2.38;;;;;;;;;;5004991;28;20505;-72
2022/09/19 06:38:44;;;;;;;5.25;2.75;;;;;;;;;;5006345;28;20038;-72
2022/09/19 06:41:47;;;;;;;6.10;2.50;;;;;;;;;;5004999;28;20053;-71
2022/09/19 06:44:32;;;;;;;9.25;2.50;;;;;;;;;;5004796;28;20069;-73
2022/09/19 06:47:06;;;;;;;7.53;2.55;;;;;;;;;;5012010;28;20056;-74
2022/09/19 06:49:47;;;;;;;4.82;2.25;;;;;;;;;;5004988;28;20061;-74
2022/09/19 06:52:26;;;;;;;4.00;2.13;;;;;;;;;;5005215;28;20056;-72
2022/09/19 06:54:58;;;;;;;4.57;2.20;;;;;;;;;;4988506;28;20515;-72
2022/09/19 06:57:28;;;;;;;4.20;2.03;;;;;;;;;;5008162;28;20049;-72
2022/09/19 07:00:00;;;;;;;7.13;2.38;;;;;;;;;;5008842;28;20045;-71
2022/09/19 07:02:33;;;;;;;4.45;2.38;;;;;;;;;;5008044;28;20061;-70
2022/09/19 07:05:04;;;;;;;4.30;2.28;;;;;;;;;;5008397;28;20041;-71
2022/09/19 07:07:45;;;;;;;4.97;2.10;;;;;;;;;;4993288;28;20057;-72
2022/09/19 07:10:16;;;;;;;5.10;2.60;;;;;;;;;;5008485;28;20079;-74
2022/09/19 07:12:56;;;;;;;4.07;2.65;;;;;;;;;;5009087;28;20050;-73
2022/09/19 07:15:26;;;;;;;3.60;2.90;;;;;;;;;;5009116;28;20052;-76
2022/09/19 07:17:56;;;;;;;6.40;3.17;;;;;;;;;;5006953;28;20424;-75
2022/09/19 07:20:27;;;;;;;7.35;3.25;;;;;;;;;;5008329;28;20058;-72
2022/09/19 07:23:13;;;;;;;7.88;3.15;;;;;;;;;;5008170;28;20505;-74
2022/09/19 07:25:57;;;;;;;4.40;2.83;;;;;;;;;;5008183;28;20065;-75
2022/09/19 07:28:28;;;;;;;4.75;2.55;;;;;;;;;;5007617;28;20042;-71
2022/09/19 07:31:00;;;;;;;4.68;2.60;;;;;;;;;;5008059;28;20535;-73
2022/09/19 07:33:33;;;;;;;5.50;2.83;;;;;;;;;;5008100;28;20054;-72
2022/09/19 07:36:07;;;;;;;4.22;2.67;;;;;;;;;;5007227;28;20065;-74
2022/09/19 07:38:39;;;;;;;3.60;2.88;;;;;;;;;;5007865;28;20535;-71
2022/09/19 07:41:38;;;;;;;5.65;3.10;;;;;;;;;;4989576;28;20568;-71
2022/09/19 07:44:27;;;;;;;5.78;3.33;;;;;;;;;;5011135;28;20058;-73
2022/09/19 07:47:30;;;;;;;6.47;3.17;;;;;;;;;;5007505;28;20061;-74
2022/09/19 07:50:19;;;;;;;9.65;3.05;;;;;;;;;;5011578;28;20049;-74
2022/09/19 07:53:11;;;;;;;6.70;3.25;;;;;;;;;;5007758;28;20138;-74
2022/09/19 07:55:44;;;;;;;3.20;2.45;;;;;;;;;;5007575;28;20469;-74
2022/09/19 07:58:16;;;;;;;4.78;2.67;;;;;;;;;;5008200;28;20049;-74
2022/09/19 08:00:52;;;;;;;5.05;2.30;;;;;;;;;;5006532;28;20081;-72
2022/09/19 08:03:44;;;;;;;5.15;2.70;;;;;;;;;;5009607;28;20049;-73
2022/09/19 08:06:17;;;;;;;5.63;2.85;;;;;;;;;;5007192;28;20058;-75
2022/09/19 08:08:47;;;;;;;3.97;2.00;;;;;;;;;;5007050;28;20054;-74
2022/09/19 08:11:41;;;;;;;7.15;2.50;;;;;;;;;;5005819;28;20053;-74
2022/09/19 08:14:11;;;;;;;3.05;2.00;;;;;;;;;;5006955;28;20050;-74
2022/09/19 08:16:43;;;;;;;2.83;2.00;;;;;;;;;;5007174;28;20064;-72
2022/09/19 08:19:15;;;;;;;4.40;1.80;;;;;;;;;;5007047;28;20053;-73
2022/09/19 08:21:45;;;;;;;4.18;2.25;;;;;;;;;;5006819;28;20049;-74
2022/09/19 08:24:16;;;;;;;5.10;1.42;;;;;;;;;;5007593;28;20057;-72
2022/09/19 08:26:50;;;;;;;1.88;1.60;;;;;;;;;;5006429;28;20050;-74
2022/09/19 08:29:22;;;;;;;3.35;2.05;;;;;;;;;;5006788;28;20054;-71
2022/09/19 08:32:02;;;;;;;4.03;2.40;;;;;;;;;;5006500;28;20062;-72
2022/09/19 08:34:33;;;;;;;1.50;1.10;;;;;;;;;;5006637;28;20069;-72
2022/09/19 08:37:04;;;;;;;2.40;1.20;;;;;;;;;;5006661;28;20046;-76
2022/09/19 08:40:15;;;;;;;2.63;0.93;;;;;;;;;;5007943;28;20052;-75
2022/09/19 08:42:59;;;;;;;3.45;0.95;;;;;;;;;;5007000;28;20054;-72
2022/09/19 08:46:11;;;;;;;3.00;0.90;;;;;;;;;;4994854;28;20386;-72
2022/09/19 08:48:58;;;;;;;0.73;0.70;;;;;;;;;;5008315;28;20053;-72
2022/09/19 08:52:00;;;;;;;1.98;1.20;;;;;;;;;;5006217;28;20061;-74
2022/09/19 08:54:36;;;;;;;2.38;0.65;;;;;;;;;;5006328;28;20061;-74
2022/09/19 08:57:38;;;;;;;2.35;0.70;;;;;;;;;;5006573;28;20535;-74
2022/09/19 09:00:19;;;;;;;5.97;0.90;;;;;;;;;;4991640;28;20060;-72
2022/09/19 09:02:50;;;;;;;1.95;0.80;;;;;;;;;;5006229;28;20052;-71
2022/09/19 09:06:18;;;;;;;1.45;0.50;;;;;;;;;;4993494;28;20068;-71
2022/09/19 09:09:10;;;;;;;2.72;0.70;;;;;;;;;;5005837;28;20060;-71
2022/09/19 09:12:08;;;;;;;2.60;1.20;;;;;;;;;;5005818;28;20050;-73
2022/09/19 09:14:59;;;;;;;2.53;0.60;;;;;;;;;;5001495;28;20049;-75
2022/09/19 09:18:08;;;;;;;3.80;0.65;;;;;;;;;;5005651;28;20072;-71
2022/09/19 09:20:41;;;;;;;2.55;0.70;;;;;;;;;;5006305;28;20056;-74
2022/09/19 09:23:20;;;;;;;1.55;0.75;;;;;;;;;;5007298;28;20092;-74
2022/09/19 09:26:06;;;;;;;2.55;0.70;;;;;;;;;;5005617;28;20050;-72
2022/09/19 09:28:46;;;;;;;1.30;0.73;;;;;;;;;;5005434;28;21153;-73
2022/09/19 09:31:38;;;;;;;2.85;0.80;;;;;;;;;;5005344;28;20060;-73
2022/09/19 09:35:02;;;;;;;2.55;0.77;;;;;;;;;;5005931;28;20049;-74
2022/09/19 09:37:42;;;;;;;1.80;0.82;;;;;;;;;;4988436;28;20054;-74
2022/09/19 09:43:45;;;;;;;2.03;0.63;;;;;;;;;;4984421;28;20146;-73
2022/09/19 09:46:24;;;;;;;1.60;0.63;;;;;;;;;;4988367;28;20408;-72
2022/09/19 09:48:55;;;;;;;0.82;0.55;;;;;;;;;;5005704;28;20049;-73
2022/09/19 09:51:28;;;;;;;1.35;0.68;;;;;;;;;;5005736;28;20069;-74
2022/09/19 09:57:29;;;;;;;2.80;1.10;;;;;;;;;;5005352;28;20049;-75
2022/09/19 10:03:49;;;;;;;1.55;0.70;;;;;;;;;;5005788;28;20054;-73
2022/09/19 10:06:42;;;;;;;0.65;0.43;;;;;;;;;;4968161;28;20054;-72
2022/09/19 10:09:19;;;;;;;0.65;0.60;;;;;;;;;;5005118;28;20053;-74
2022/09/19 10:12:06;;;;;;;4.30;0.98;;;;;;;;;;5004705;28;20053;-71
2022/09/19 10:15:02;;;;;;;6.78;2.70;;;;;;;;;;5005132;28;20084;-71
2022/09/19 10:18:04;;;;;;;2.40;0.80;;;;;;;;;;5005207;28;20065;-72
2022/09/19 10:20:49;;;;;;;1.08;0.85;;;;;;;;;;5005460;28;20401;-72
2022/09/19 10:23:29;;;;;;;1.20;0.63;;;;;;;;;;5004678;28;20049;-75
2022/09/19 10:26:15;;;;;;;1.55;0.60;;;;;;;;;;5005533;28;20394;-74
2022/09/19 10:28:53;;;;;;;13.35;1.83;;;;;;;;;;5005929;28;20046;-74
2022/09/19 10:31:54;;;;;;;3.85;1.00;;;;;;;;;;5007457;28;20054;-73
2022/09/19 10:34:49;;;;;;;1.17;0.60;;;;;;;;;;5009986;28;20057;-74
2022/09/19 10:37:28;;;;;;;1.42;0.50;;;;;;;;;;5008635;28;20057;-73
2022/09/19 10:40:04;;;;;;;2.25;0.68;;;;;;;;;;5008758;28;20054;-72
2022/09/19 10:42:41;;;;;;;3.53;0.88;;;;;;;;;;5008478;28;20417;-73
2022/09/19 10:45:37;;;;;;;2.50;0.80;;;;;;;;;;4993500;28;20065;-72
2022/09/19 10:48:23;;;;;;;7.68;0.88;;;;;;;;;;5008625;28;20053;-72
2022/09/19 10:50:54;;;;;;;7.55;1.85;;;;;;;;;;5009035;28;20056;-72
2022/09/19 10:53:32;;;;;;;7.55;0.90;;;;;;;;;;5008689;28;20177;-77
2022/09/19 10:56:08;;;;;;;4.10;0.70;;;;;;;;;;5010002;28;20408;-73
2022/09/19 10:58:42;;;;;;;6.15;1.42;;;;;;;;;;5009795;28;20050;-74
2022/09/19 11:01:24;;;;;;;2.03;0.60;;;;;;;;;;5007901;28;20057;-76
2022/09/19 11:04:02;;;;;;;3.22;0.95;;;;;;;;;;5009677;28;20172;-73
2022/09/19 11:06:34;;;;;;;1.50;0.73;;;;;;;;;;5008602;28;20046;-71
2022/09/19 11:09:23;;;;;;;3.35;0.70;;;;;;;;;;5007504;28;20050;-74
2022/09/19 11:12:03;;;;;;;5.35;0.90;;;;;;;;;;5009111;28;20053;-73
2022/09/19 11:14:46;;;;;;;10.27;3.05;;;;;;;;;;5008140;28;20053;-74
2022/09/19 11:17:29;;;;;;;10.13;2.78;;;;;;;;;;5007323;28;20064;-76
2022/09/19 11:20:14;;;;;;;6.10;1.60;;;;;;;;;;5007892;28;20084;-75
2022/09/19 11:23:13;;;;;;;6.00;1.30;;;;;;;;;;5008370;28;20069;-74
2022/09/19 11:25:58;;;;;;;4.75;1.50;;;;;;;;;;5008634;28;20054;-74
2022/09/19 11:29:24;;;;;;;4.65;1.27;;;;;;;;;;5007819;28;20827;-75
2022/09/19 11:32:35;;;;;;;8.50;1.20;;;;;;;;;;4968830;28;20062;-72
2022/09/19 11:35:48;;;;;;;;;;;;;;;;;;4988555;28;20551;-71
2022/09/19 11:38:23;;;;;;;2.00;0.80;;;;;;;;;;5007446;28;20981;-72
2022/09/19 11:41:19;;;;;;;6.05;1.20;;;;;;;;;;5006454;28;20096;-76
2022/09/19 11:44:24;;;;;;;;;;;;;;;;;;5014407;28;20053;-74
2022/09/19 11:47:31;;;;;;;2.92;1.05;;;;;;;;;;4969224;28;19929;-73
2022/09/19 11:50:16;;;;;;;5.18;1.20;;;;;;;;;;5009436;28;20053;-73
2022/09/19 11:53:29;;;;;;;7.25;1.95;;;;;;;;;;5006727;28;20982;-80
2022/09/19 11:56:09;;;;;;;2.08;0.90;;;;;;;;;;5007457;28;20050;-76
2022/09/19 11:58:44;;;;;;;3.15;1.38;;;;;;;;;;5007607;28;20416;-74
2022/09/19 12:01:35;;;;;;;2.80;1.23;;;;;;;;;;5006858;28;20811;-73
2022/09/19 12:04:42;;;;;;;6.53;1.50;;;;;;;;;;5007519;28;20057;-72
2022/09/19 12:07:25;;;;;;;6.38;2.45;;;;;;;;;;5007247;28;20409;-74
2022/09/19 12:10:11;;;;;;;4.82;2.63;;;;;;;;;;5007318;28;20365;-74
2022/09/19 12:12:45;;;;;;;6.55;2.65;;;;;;;;;;5006812;28;20058;-74
2022/09/19 12:15:32;;;;;;;11.80;5.78;;;;;;;;;;5006861;28;20065;-80
2022/09/19 12:18:22;;;;;;;5.97;3.13;;;;;;;;;;5006645;28;20064;-75
2022/09/19 12:20:58;;;;;;;5.93;2.95;;;;;;;;;;5007091;28;20057;-75
2022/09/19 12:26:53;;;;;;;4.85;2.40;;;;;;;;;;5006910;28;20057;-75
2022/09/19 12:29:45;;;;;;;6.30;2.60;;;;;;;;;;5006508;28;20060;-74
2022/09/19 12:32:31;;;;;;;2.88;1.60;;;;;;;;;;5007801;28;20050;-72
2022/09/19 12:35:11;;;;;;;5.95;2.10;;;;;;;;;;5006735;28;20065;-72
2022/09/19 12:38:04;;;;;;;4.22;1.80;;;;;;;;;;5007574;28;20049;-76
2022/09/19 12:41:01;;;;;;;6.68;2.10;;;;;;;;;;5006755;28;20397;-74
2022/09/19 12:43:41;;;;;;;3.92;1.83;;;;;;;;;;5006633;28;20050;-78
2022/09/19 12:46:34;;;;;;;8.45;1.58;;;;;;;;;;5005972;28;20068;-74
2022/09/19 12:49:46;;;;;;;3.65;1.42;;;;;;;;;;5006459;28;20058;-74
2022/09/19 12:52:22;;;;;;;3.55;1.90;;;;;;;;;;5006381;28;20072;-72
2022/09/19 12:55:03;;;;;;;3.38;1.98;;;;;;;;;;5006831;28;20050;-72
2022/09/19 12:57:50;;;;;;;3.83;1.70;;;;;;;;;;5007325;28;20050;-74
2022/09/19 13:00:24;;;;;;;7.85;1.90;;;;;;;;;;5007704;28;20053;-74
2022/09/19 13:03:20;;;;;;;6.45;1.90;;;;;;;;;;5007525;28;20061;-73
2022/09/19 13:05:51;;;;;;;7.43;2.78;;;;;;;;;;5006684;28;20150;-73
2022/09/19 13:08:28;;;;;;;7.00;1.65;;;;;;;;;;5007152;28;20054;-76
2022/09/19 13:11:16;;;;;;;4.85;1.92;;;;;;;;;;5004982;28;20053;-73
2022/09/19 13:14:06;;;;;;;22.17;3.65;;;;;;;;;;5005533;28;20057;-75
2022/09/19 13:23:30;;;;;;;4.30;2.00;;;;;;;;;;5006849;28;20057;-75
2022/09/19 13:25:41;;;;;;;4.05;1.60;;;;;;;;;;5007547;28;20050;-75
2022/09/19 13:28:21;;;;;;;4.68;1.88;;;;;;;;;;5007426;28;20517;-76
2022/09/19 13:31:10;;;;;;;3.25;1.63;;;;;;;;;;5006107;28;20516;-75
2022/09/19 13:33:47;;;;;;;6.22;2.30;;;;;;;;;;5007422;28;20050;-80
2022/09/19 13:36:40;;;;;;;4.70;2.00;;;;;;;;;;5007142;28;20053;-75
2022/09/19 13:39:48;;;;;;;5.28;1.60;;;;;;;;;;5006570;28;20056;-74
2022/09/19 13:42:33;;;;;;;4.30;1.65;;;;;;;;;;5006524;28;20053;-75
2022/09/19 13:45:13;;;;;;;4.45;1.48;;;;;;;;;;5007239;28;20062;-75
2022/09/19 13:47:48;;;;;;;5.07;1.92;;;;;;;;;;5006894;28;20049;-73
2022/09/19 13:50:40;;;;;;;4.50;1.77;;;;;;;;;;5007416;28;20053;-74
2022/09/19 13:53:30;;;;;;;4.82;1.80;;;;;;;;;;5006764;28;20053;-75
2022/09/19 13:56:04;;;;;;;5.15;1.80;;;;;;;;;;5006384;28;20046;-77
2022/09/19 13:58:39;;;;;;;3.65;1.73;;;;;;;;;;5007090;28;20045;-74
2022/09/19 14:01:12;;;;;;;5.32;1.80;;;;;;;;;;5005557;28;20069;-74
2022/09/19 14:03:56;;;;;;;5.68;2.05;;;;;;;;;;5006564;28;20049;-73
2022/09/19 14:06:34;;;;;;;3.60;1.70;;;;;;;;;;5011117;28;20065;-74
2022/09/19 14:09:30;;;;;;;4.82;2.00;;;;;;;;;;5010764;28;20053;-71
2022/09/19 14:12:37;;;;;;;6.38;2.03;;;;;;;;;;5010756;28;20081;-75
2022/09/19 14:15:28;;;;;;;7.93;2.38;;;;;;;;;;5010537;28;20050;-75
2022/09/19 14:18:11;;;;;;;4.20;2.00;;;;;;;;;;5010499;28;20057;-73
2022/09/19 14:21:33;;;;;;;4.20;1.85;;;;;;;;;;5010148;28;20049;-75
2022/09/19 14:24:19;;;;;;;6.13;2.10;;;;;;;;;;5009732;28;20053;-75
2022/09/19 14:27:15;;;;;;;4.05;2.00;;;;;;;;;;5010635;28;20049;-74
2022/09/19 14:30:03;;;;;;;8.15;2.00;;;;;;;;;;5010193;28;20054;-73
2022/09/19 14:33:12;;;;;;;4.40;1.95;;;;;;;;;;5010034;28;20069;-73
2022/09/19 14:35:46;;;;;;;9.65;4.75;;;;;;;;;;5009291;28;20061;-75
2022/09/19 14:38:29;;;;;;;6.93;2.25;;;;;;;;;;5010297;28;20062;-75
2022/09/19 14:41:17;;;;;;;6.07;1.60;;;;;;;;;;5016524;28;20042;-73
2022/09/19 14:44:41;;;;;;;8.63;1.92;;;;;;;;;;5014613;28;20607;-73
2022/09/19 14:47:35;;;;;;;4.68;2.13;;;;;;;;;;5009902;28;20050;-76
2022/09/19 14:50:20;;;;;;;4.82;1.98;;;;;;;;;;5009564;28;20058;-74
2022/09/19 14:52:57;;;;;;;7.32;2.33;;;;;;;;;;5010020;28;20064;-75
2022/09/19 14:55:29;;;;;;;7.43;1.98;;;;;;;;;;5010173;28;20057;-73
2022/09/19 14:57:59;;;;;;;5.93;1.80;;;;;;;;;;5008897;28;20404;-75
2022/09/19 15:00:34;;;;;;;6.20;2.30;;;;;;;;;;5009663;28;20049;-75
2022/09/19 15:03:12;;;;;;;4.93;2.30;;;;;;;;;;5007948;28;20056;-75
2022/09/19 15:05:44;;;;;;;7.35;2.60;;;;;;;;;;5007987;28;20535;-81
2022/09/19 15:08:35;;;;;;;9.70;2.25;;;;;;;;;;5009558;28;20057;-75
2022/09/19 15:11:10;;;;;;;4.18;2.05;;;;;;;;;;5009150;28;20038;-75
2022/09/19 15:13:46;;;;;;;4.93;2.00;;;;;;;;;;5009438;28;20041;-74
2022/09/19 15:16:17;;;;;;;4.90;2.13;;;;;;;;;;5007169;28;20058;-73
2022/09/19 15:18:55;;;;;;;5.50;2.50;;;;;;;;;;5008595;28;20065;-72
2022/09/19 15:21:29;;;;;;;10.20;3.28;;;;;;;;;;4991516;28;20065;-72
2022/09/19 15:24:05;;;;;;;8.68;4.40;;;;;;;;;;5009292;28;20060;-75
2022/09/19 15:26:46;;;;;;;6.13;2.45;;;;;;;;;;5009488;28;20393;-73
2022/09/19 15:29:39;;;;;;;4.72;2.20;;;;;;;;;;5008850;28;20057;-75
2022/09/19 15:32:33;;;;;;;8.00;2.65;;;;;;;;;;5008870;28;20062;-77
2022/09/19 15:35:09;;;;;;;5.40;2.42;;;;;;;;;;5009538;28;20046;-73
2022/09/19 15:37:43;;;;;;;4.93;2.60;;;;;;;;;;5007299;28;20065;-73
2022/09/19 15:40:20;;;;;;;6.60;2.47;;;;;;;;;;5008903;28;20061;-71
2022/09/19 15:42:57;;;;;;;4.90;2.65;;;;;;;;;;5008941;28;20046;-74
2022/09/19 15:45:28;;;;;;;5.57;2.88;;;;;;;;;;5006793;28;20049;-74
2022/09/19 15:48:20;;;;;;;5.68;2.13;;;;;;;;;;5007516;28;20509;-72
2022/09/19 15:50:58;;;;;;;6.53;2.60;;;;;;;;;;5008402;28;20069;-74
2022/09/19 15:53:39;;;;;;;9.85;3.97;;;;;;;;;;5008843;28;20049;-74
2022/09/19 15:56:11;;;;;;;7.72;2.75;;;;;;;;;;5008609;28;20045;-74
2022/09/19 15:58:51;;;;;;;9.85;3.42;;;;;;;;;;5008427;28;20050;-74
2022/09/19 16:01:26;;;;;;;6.65;2.92;;;;;;;;;;5008531;28;20384;-74
2022/09/19 16:04:19;;;;;;;7.72;5.25;;;;;;;;;;5008316;28;20037;-73
2022/09/19 16:09:40;;;;;;;6.18;3.05;;;;;;;;;;5008095;28;20046;-72
2022/09/19 16:12:25;;;;;;;7.72;4.53;;;;;;;;;;5007968;28;20520;-73
2022/09/19 16:15:02;;;;;;;4.60;2.60;;;;;;;;;;5008283;28;20042;-75
2022/09/19 16:18:00;;;;;;;5.78;2.90;;;;;;;;;;5007485;28;20072;-73
2022/09/19 16:20:30;;;;;;;5.63;2.53;;;;;;;;;;5008166;28;20081;-73
2022/09/19 16:23:03;;;;;;;4.45;2.40;;;;;;;;;;5008357;28;20056;-74
2022/09/19 16:25:36;;;;;;;5.80;2.60;;;;;;;;;;5008413;28;20041;-74
2022/09/19 16:28:27;;;;;;;5.97;2.90;;;;;;;;;;5008280;28;20050;-73
2022/09/19 16:31:02;;;;;;;7.35;3.53;;;;;;;;;;5007749;28;20378;-73
2022/09/19 16:33:39;;;;;;;6.40;2.47;;;;;;;;;;5006243;28;20050;-73
2022/09/19 16:36:14;;;;;;;9.50;2.95;;;;;;;;;;5008504;28;20049;-73